sensor_id;sensor_type;location;lat;lon;timestamp;temperature;humidity
23507;DHT22;11930;53.076;18.250;2023-07-16T00:00:57;18.40;99.90
23507;DHT22;11930;53.076;18.250;2023-07-16T00:03:43;18.50;99.90
23507;DHT22;11930;53.076;18.250;2023-07-16T00:06:09;18.60;99.90
23507;DHT22;11930;53.076;18.250;2023-07-16T00:08:35;18.70;99.90
23507;DHT22;11930;53.076;18.250;2023-07-16T00:11:04;18.80;99.90
23507;DHT22;11930;53.076;18.250;2023-07-16T00:13:30;18.90;99.90
23507;DHT22;11930;53.076;18.250;2023-07-16T00:15:56;19.00;99.90
23507;DHT22;11930;53.076;18.250;2023-07-16T00:18:22;19.10;99.90
23507;DHT22;11930;53.076;18.250;2023-07-16T00:20:48;19.10;99.90
23507;DHT22;11930;53.076;18.250;2023-07-16T00:23:14;19.10;99.90
23507;DHT22;11930;53.076;18.250;2023-07-16T00:25:41;19.20;99.90
23507;DHT22;11930;53.076;18.250;2023-07-16T00:30:33;19.30;99.90
23507;DHT22;11930;53.076;18.250;2023-07-16T00:32:59;19.40;99.90
23507;DHT22;11930;53.076;18.250;2023-07-16T00:35:25;19.40;99.90
23507;DHT22;11930;53.076;18.250;2023-07-16T00:37:51;19.30;99.90
23507;DHT22;11930;53.076;18.250;2023-07-16T00:40:19;19.30;99.90
23507;DHT22;11930;53.076;18.250;2023-07-16T00:42:45;19.30;99.90
23507;DHT22;11930;53.076;18.250;2023-07-16T00:45:14;19.30;99.90
23507;DHT22;11930;53.076;18.250;2023-07-16T00:47:41;19.30;99.90
23507;DHT22;11930;53.076;18.250;2023-07-16T00:50:09;19.30;99.90
23507;DHT22;11930;53.076;18.250;2023-07-16T00:52:35;19.30;99.90
23507;DHT22;11930;53.076;18.250;2023-07-16T00:55:02;19.40;99.90
23507;DHT22;11930;53.076;18.250;2023-07-16T00:57:29;19.40;99.90
23507;DHT22;11930;53.076;18.250;2023-07-16T00:59:55;19.40;99.90
23507;DHT22;11930;53.076;18.250;2023-07-16T01:02:22;19.30;99.90
23507;DHT22;11930;53.076;18.250;2023-07-16T01:04:49;19.20;99.90
23507;DHT22;11930;53.076;18.250;2023-07-16T01:07:16;19.10;99.90
23507;DHT22;11930;53.076;18.250;2023-07-16T01:09:44;18.90;99.90
23507;DHT22;11930;53.076;18.250;2023-07-16T01:12:11;18.80;99.90
23507;DHT22;11930;53.076;18.250;2023-07-16T01:14:39;18.70;99.90
23507;DHT22;11930;53.076;18.250;2023-07-16T01:17:06;18.60;99.90
23507;DHT22;11930;53.076;18.250;2023-07-16T01:19:35;18.50;99.90
23507;DHT22;11930;53.076;18.250;2023-07-16T01:29:44;18.30;99.90
23507;DHT22;11930;53.076;18.250;2023-07-16T01:32:12;18.30;99.90
23507;DHT22;11930;53.076;18.250;2023-07-16T01:34:39;18.30;99.90
23507;DHT22;11930;53.076;18.250;2023-07-16T01:37:06;18.30;99.90
23507;DHT22;11930;53.076;18.250;2023-07-16T01:39:32;18.30;99.90
23507;DHT22;11930;53.076;18.250;2023-07-16T01:42:02;18.30;99.90
23507;DHT22;11930;53.076;18.250;2023-07-16T01:44:28;18.30;99.90
23507;DHT22;11930;53.076;18.250;2023-07-16T01:50:22;18.20;99.90
23507;DHT22;11930;53.076;18.250;2023-07-16T01:52:48;18.20;99.90
23507;DHT22;11930;53.076;18.250;2023-07-16T01:55:14;18.20;99.90
23507;DHT22;11930;53.076;18.250;2023-07-16T01:57:40;18.20;99.90
23507;DHT22;11930;53.076;18.250;2023-07-16T02:00:07;18.10;99.90
23507;DHT22;11930;53.076;18.250;2023-07-16T02:02:45;18.20;99.90
23507;DHT22;11930;53.076;18.250;2023-07-16T02:05:14;18.20;99.90
23507;DHT22;11930;53.076;18.250;2023-07-16T02:07:40;18.30;99.90
23507;DHT22;11930;53.076;18.250;2023-07-16T02:10:07;18.30;99.90
23507;DHT22;11930;53.076;18.250;2023-07-16T02:12:33;18.40;99.90
23507;DHT22;11930;53.076;18.250;2023-07-16T02:15:00;18.50;99.90
23507;DHT22;11930;53.076;18.250;2023-07-16T02:17:26;18.60;99.90
23507;DHT22;11930;53.076;18.250;2023-07-16T02:19:52;18.70;99.90
23507;DHT22;11930;53.076;18.250;2023-07-16T02:22:17;18.80;99.90
23507;DHT22;11930;53.076;18.250;2023-07-16T02:24:44;18.80;99.90
23507;DHT22;11930;53.076;18.250;2023-07-16T02:27:12;18.90;99.90
23507;DHT22;11930;53.076;18.250;2023-07-16T02:29:40;18.90;99.90
23507;DHT22;11930;53.076;18.250;2023-07-16T02:32:06;18.90;99.90
23507;DHT22;11930;53.076;18.250;2023-07-16T02:34:32;18.90;99.90
23507;DHT22;11930;53.076;18.250;2023-07-16T02:37:00;19.00;99.90
23507;DHT22;11930;53.076;18.250;2023-07-16T02:39:27;18.90;99.90
23507;DHT22;11930;53.076;18.250;2023-07-16T02:41:53;18.90;99.90
23507;DHT22;11930;53.076;18.250;2023-07-16T02:44:19;18.90;99.90
23507;DHT22;11930;53.076;18.250;2023-07-16T02:46:45;18.90;99.90
23507;DHT22;11930;53.076;18.250;2023-07-16T02:49:12;18.90;99.90
23507;DHT22;11930;53.076;18.250;2023-07-16T02:51:37;19.00;99.90
23507;DHT22;11930;53.076;18.250;2023-07-16T02:54:04;19.10;99.90
23507;DHT22;11930;53.076;18.250;2023-07-16T02:56:30;19.10;99.90
23507;DHT22;11930;53.076;18.250;2023-07-16T02:58:56;19.20;99.90
23507;DHT22;11930;53.076;18.250;2023-07-16T03:01:22;19.30;99.90
23507;DHT22;11930;53.076;18.250;2023-07-16T03:03:48;19.30;99.90
23507;DHT22;11930;53.076;18.250;2023-07-16T03:06:14;19.40;99.90
23507;DHT22;11930;53.076;18.250;2023-07-16T03:08:40;19.40;99.90
23507;DHT22;11930;53.076;18.250;2023-07-16T03:11:06;19.40;99.90
23507;DHT22;11930;53.076;18.250;2023-07-16T03:13:33;19.50;99.90
23507;DHT22;11930;53.076;18.250;2023-07-16T03:15:59;19.40;99.90
23507;DHT22;11930;53.076;18.250;2023-07-16T03:18:29;19.40;99.90
23507;DHT22;11930;53.076;18.250;2023-07-16T03:20:56;19.40;99.90
23507;DHT22;11930;53.076;18.250;2023-07-16T03:23:23;19.40;99.90
23507;DHT22;11930;53.076;18.250;2023-07-16T03:25:49;19.40;99.90
23507;DHT22;11930;53.076;18.250;2023-07-16T03:28:15;19.40;99.90
23507;DHT22;11930;53.076;18.250;2023-07-16T03:30:48;19.50;99.90
23507;DHT22;11930;53.076;18.250;2023-07-16T03:33:15;19.50;99.90
23507;DHT22;11930;53.076;18.250;2023-07-16T03:35:48;19.60;99.90
23507;DHT22;11930;53.076;18.250;2023-07-16T03:38:15;19.70;99.90
23507;DHT22;11930;53.076;18.250;2023-07-16T03:40:46;19.90;99.90
23507;DHT22;11930;53.076;18.250;2023-07-16T03:43:13;20.10;99.90
23507;DHT22;11930;53.076;18.250;2023-07-16T03:45:39;20.50;99.90
23507;DHT22;11930;53.076;18.250;2023-07-16T03:48:06;21.00;99.90
23507;DHT22;11930;53.076;18.250;2023-07-16T03:50:31;21.60;99.90
23507;DHT22;11930;53.076;18.250;2023-07-16T03:52:59;22.10;99.90
23507;DHT22;11930;53.076;18.250;2023-07-16T03:55:25;22.50;99.90
23507;DHT22;11930;53.076;18.250;2023-07-16T03:57:51;22.80;99.90
23507;DHT22;11930;53.076;18.250;2023-07-16T04:00:17;23.30;99.90
23507;DHT22;11930;53.076;18.250;2023-07-16T04:02:48;23.60;99.90
23507;DHT22;11930;53.076;18.250;2023-07-16T04:05:17;23.90;99.90
23507;DHT22;11930;53.076;18.250;2023-07-16T04:07:43;24.10;99.90
23507;DHT22;11930;53.076;18.250;2023-07-16T04:10:09;24.30;99.90
23507;DHT22;11930;53.076;18.250;2023-07-16T04:12:36;24.60;99.90
23507;DHT22;11930;53.076;18.250;2023-07-16T04:15:07;24.80;99.90
23507;DHT22;11930;53.076;18.250;2023-07-16T04:17:33;25.00;99.90
23507;DHT22;11930;53.076;18.250;2023-07-16T04:19:59;25.40;99.90
23507;DHT22;11930;53.076;18.250;2023-07-16T04:22:25;25.60;99.90
23507;DHT22;11930;53.076;18.250;2023-07-16T04:24:51;25.70;99.90
23507;DHT22;11930;53.076;18.250;2023-07-16T04:27:17;25.90;99.50
23507;DHT22;11930;53.076;18.250;2023-07-16T04:29:44;26.00;99.90
23507;DHT22;11930;53.076;18.250;2023-07-16T04:32:10;26.10;99.50
23507;DHT22;11930;53.076;18.250;2023-07-16T04:34:36;26.10;97.80
23507;DHT22;11930;53.076;18.250;2023-07-16T04:37:02;26.00;97.80
23507;DHT22;11930;53.076;18.250;2023-07-16T04:39:28;25.80;98.60
23507;DHT22;11930;53.076;18.250;2023-07-16T04:41:54;25.40;98.90
23507;DHT22;11930;53.076;18.250;2023-07-16T04:44:20;25.00;99.80
23507;DHT22;11930;53.076;18.250;2023-07-16T04:46:46;24.80;99.90
23507;DHT22;11930;53.076;18.250;2023-07-16T04:49:12;24.50;99.90
23507;DHT22;11930;53.076;18.250;2023-07-16T04:51:38;24.30;99.90
23507;DHT22;11930;53.076;18.250;2023-07-16T04:54:04;24.20;99.90
23507;DHT22;11930;53.076;18.250;2023-07-16T04:56:30;24.10;99.90
23507;DHT22;11930;53.076;18.250;2023-07-16T04:58:56;24.20;99.90
23507;DHT22;11930;53.076;18.250;2023-07-16T05:01:22;24.20;99.90
23507;DHT22;11930;53.076;18.250;2023-07-16T05:03:48;24.20;99.90
23507;DHT22;11930;53.076;18.250;2023-07-16T05:06:14;24.40;99.90
23507;DHT22;11930;53.076;18.250;2023-07-16T05:08:40;24.50;99.90
23507;DHT22;11930;53.076;18.250;2023-07-16T05:11:06;24.70;99.90
23507;DHT22;11930;53.076;18.250;2023-07-16T05:13:32;25.00;99.90
23507;DHT22;11930;53.076;18.250;2023-07-16T05:15:59;25.50;99.90
23507;DHT22;11930;53.076;18.250;2023-07-16T05:18:25;26.10;99.90
23507;DHT22;11930;53.076;18.250;2023-07-16T05:20:51;26.70;99.10
23507;DHT22;11930;53.076;18.250;2023-07-16T05:23:17;27.10;97.10
23507;DHT22;11930;53.076;18.250;2023-07-16T05:25:49;27.50;96.80
23507;DHT22;11930;53.076;18.250;2023-07-16T05:28:18;27.90;94.60
23507;DHT22;11930;53.076;18.250;2023-07-16T05:30:45;28.20;92.50
23507;DHT22;11930;53.076;18.250;2023-07-16T05:33:11;28.30;92.00
23507;DHT22;11930;53.076;18.250;2023-07-16T05:35:39;28.50;91.40
23507;DHT22;11930;53.076;18.250;2023-07-16T05:38:05;28.60;91.20
23507;DHT22;11930;53.076;18.250;2023-07-16T05:40:31;28.90;90.00
23507;DHT22;11930;53.076;18.250;2023-07-16T05:42:57;29.20;87.10
23507;DHT22;11930;53.076;18.250;2023-07-16T05:45:23;29.50;85.20
23507;DHT22;11930;53.076;18.250;2023-07-16T05:47:49;29.70;84.00
23507;DHT22;11930;53.076;18.250;2023-07-16T05:50:15;29.90;83.20
23507;DHT22;11930;53.076;18.250;2023-07-16T05:52:42;30.30;80.20
23507;DHT22;11930;53.076;18.250;2023-07-16T05:55:08;30.70;78.60
23507;DHT22;11930;53.076;18.250;2023-07-16T05:57:34;31.00;74.30
23507;DHT22;11930;53.076;18.250;2023-07-16T06:00:00;31.30;73.20
23507;DHT22;11930;53.076;18.250;2023-07-16T06:02:26;31.50;71.10
23507;DHT22;11930;53.076;18.250;2023-07-16T06:04:52;31.60;69.30
23507;DHT22;11930;53.076;18.250;2023-07-16T06:07:18;31.70;69.20
23507;DHT22;11930;53.076;18.250;2023-07-16T06:09:44;31.60;70.70
23507;DHT22;11930;53.076;18.250;2023-07-16T06:12:10;31.50;67.40
23507;DHT22;11930;53.076;18.250;2023-07-16T06:14:36;31.40;67.30
23507;DHT22;11930;53.076;18.250;2023-07-16T06:17:02;31.30;67.10
23507;DHT22;11930;53.076;18.250;2023-07-16T06:19:28;31.10;68.40
23507;DHT22;11930;53.076;18.250;2023-07-16T06:21:54;31.00;67.90
23507;DHT22;11930;53.076;18.250;2023-07-16T06:24:21;30.90;67.30
23507;DHT22;11930;53.076;18.250;2023-07-16T06:26:47;30.70;67.60
23507;DHT22;11930;53.076;18.250;2023-07-16T06:29:13;30.50;69.30
23507;DHT22;11930;53.076;18.250;2023-07-16T06:31:42;30.30;68.10
23507;DHT22;11930;53.076;18.250;2023-07-16T06:34:08;29.90;68.80
23507;DHT22;11930;53.076;18.250;2023-07-16T06:36:34;29.60;68.50
23507;DHT22;11930;53.076;18.250;2023-07-16T06:39:00;29.50;70.20
23507;DHT22;11930;53.076;18.250;2023-07-16T06:41:26;29.40;71.40
23507;DHT22;11930;53.076;18.250;2023-07-16T06:43:52;29.20;70.80
23507;DHT22;11930;53.076;18.250;2023-07-16T06:46:18;29.10;70.80
23507;DHT22;11930;53.076;18.250;2023-07-16T06:48:44;29.20;70.10
23507;DHT22;11930;53.076;18.250;2023-07-16T06:51:10;29.10;70.40
23507;DHT22;11930;53.076;18.250;2023-07-16T06:53:37;29.10;71.90
23507;DHT22;11930;53.076;18.250;2023-07-16T06:56:03;29.10;70.80
23507;DHT22;11930;53.076;18.250;2023-07-16T06:58:33;29.10;70.30
23507;DHT22;11930;53.076;18.250;2023-07-16T07:00:59;29.20;71.30
23507;DHT22;11930;53.076;18.250;2023-07-16T07:03:26;29.40;68.80
23507;DHT22;11930;53.076;18.250;2023-07-16T07:05:52;29.50;69.00
23507;DHT22;11930;53.076;18.250;2023-07-16T07:08:18;29.70;67.90
23507;DHT22;11930;53.076;18.250;2023-07-16T07:10:44;29.90;66.60
23507;DHT22;11930;53.076;18.250;2023-07-16T07:13:10;30.20;66.20
23507;DHT22;11930;53.076;18.250;2023-07-16T07:15:36;30.50;64.60
23507;DHT22;11930;53.076;18.250;2023-07-16T07:18:03;30.80;64.90
23507;DHT22;11930;53.076;18.250;2023-07-16T07:20:29;31.10;64.30
23507;DHT22;11930;53.076;18.250;2023-07-16T07:22:55;31.30;62.90
23507;DHT22;11930;53.076;18.250;2023-07-16T07:25:21;31.50;61.30
23507;DHT22;11930;53.076;18.250;2023-07-16T07:27:47;31.70;61.40
23507;DHT22;11930;53.076;18.250;2023-07-16T07:30:13;32.00;60.10
23507;DHT22;11930;53.076;18.250;2023-07-16T07:32:39;32.20;59.70
23507;DHT22;11930;53.076;18.250;2023-07-16T07:35:05;32.50;58.30
23507;DHT22;11930;53.076;18.250;2023-07-16T07:37:32;32.50;59.70
23507;DHT22;11930;53.076;18.250;2023-07-16T07:39:58;32.70;58.40
23507;DHT22;11930;53.076;18.250;2023-07-16T07:42:25;33.00;58.80
23507;DHT22;11930;53.076;18.250;2023-07-16T07:44:53;33.30;57.10
23507;DHT22;11930;53.076;18.250;2023-07-16T07:47:19;33.60;56.10
23507;DHT22;11930;53.076;18.250;2023-07-16T07:49:45;33.70;54.90
23507;DHT22;11930;53.076;18.250;2023-07-16T07:52:11;33.90;55.50
23507;DHT22;11930;53.076;18.250;2023-07-16T07:54:37;34.00;54.30
23507;DHT22;11930;53.076;18.250;2023-07-16T07:57:07;34.10;54.10
23507;DHT22;11930;53.076;18.250;2023-07-16T07:59:33;34.20;54.50
23507;DHT22;11930;53.076;18.250;2023-07-16T08:01:59;34.30;53.80
23507;DHT22;11930;53.076;18.250;2023-07-16T08:04:27;34.40;53.90
23507;DHT22;11930;53.076;18.250;2023-07-16T08:06:54;34.40;53.00
23507;DHT22;11930;53.076;18.250;2023-07-16T08:09:20;34.50;52.80
23507;DHT22;11930;53.076;18.250;2023-07-16T08:11:46;34.50;53.80
23507;DHT22;11930;53.076;18.250;2023-07-16T08:14:12;34.40;53.60
23507;DHT22;11930;53.076;18.250;2023-07-16T08:16:38;34.30;52.70
23507;DHT22;11930;53.076;18.250;2023-07-16T08:19:04;34.30;54.00
23507;DHT22;11930;53.076;18.250;2023-07-16T08:21:32;34.40;54.30
23507;DHT22;11930;53.076;18.250;2023-07-16T08:23:58;34.50;53.00
23507;DHT22;11930;53.076;18.250;2023-07-16T08:26:24;34.50;53.50
23507;DHT22;11930;53.076;18.250;2023-07-16T08:28:50;34.50;53.40
23507;DHT22;11930;53.076;18.250;2023-07-16T08:31:16;34.20;54.80
23507;DHT22;11930;53.076;18.250;2023-07-16T08:33:42;33.90;53.90
23507;DHT22;11930;53.076;18.250;2023-07-16T08:36:09;33.60;54.50
23507;DHT22;11930;53.076;18.250;2023-07-16T08:38:35;33.20;55.30
23507;DHT22;11930;53.076;18.250;2023-07-16T08:41:02;33.00;55.10
23507;DHT22;11930;53.076;18.250;2023-07-16T08:43:29;32.60;57.00
23507;DHT22;11930;53.076;18.250;2023-07-16T08:45:56;32.40;58.80
23507;DHT22;11930;53.076;18.250;2023-07-16T08:48:22;32.30;59.60
23507;DHT22;11930;53.076;18.250;2023-07-16T08:50:49;32.10;58.10
23507;DHT22;11930;53.076;18.250;2023-07-16T08:53:16;32.10;57.40
23507;DHT22;11930;53.076;18.250;2023-07-16T08:55:45;31.90;56.90
23507;DHT22;11930;53.076;18.250;2023-07-16T08:58:14;31.80;58.10
23507;DHT22;11930;53.076;18.250;2023-07-16T09:00:44;31.80;57.10
23507;DHT22;11930;53.076;18.250;2023-07-16T09:03:14;31.80;57.90
23507;DHT22;11930;53.076;18.250;2023-07-16T09:05:44;31.80;58.20
23507;DHT22;11930;53.076;18.250;2023-07-16T09:08:10;31.90;57.50
23507;DHT22;11930;53.076;18.250;2023-07-16T09:10:36;32.00;56.80
23507;DHT22;11930;53.076;18.250;2023-07-16T09:13:02;32.10;58.30
23507;DHT22;11930;53.076;18.250;2023-07-16T09:15:29;32.10;57.20
23507;DHT22;11930;53.076;18.250;2023-07-16T09:17:55;32.10;56.40
23507;DHT22;11930;53.076;18.250;2023-07-16T09:20:22;32.00;55.80
23507;DHT22;11930;53.076;18.250;2023-07-16T09:22:54;31.80;56.30
23507;DHT22;11930;53.076;18.250;2023-07-16T09:25:29;31.60;56.30
23507;DHT22;11930;53.076;18.250;2023-07-16T09:28:02;31.40;57.00
23507;DHT22;11930;53.076;18.250;2023-07-16T09:30:31;31.20;56.00
23507;DHT22;11930;53.076;18.250;2023-07-16T09:33:19;31.00;56.40
23507;DHT22;11930;53.076;18.250;2023-07-16T09:35:48;30.70;57.00
23507;DHT22;11930;53.076;18.250;2023-07-16T09:38:14;30.50;58.40
23507;DHT22;11930;53.076;18.250;2023-07-16T09:40:41;30.30;58.40
23507;DHT22;11930;53.076;18.250;2023-07-16T09:43:09;30.10;58.10
23507;DHT22;11930;53.076;18.250;2023-07-16T09:45:36;30.00;59.90
23507;DHT22;11930;53.076;18.250;2023-07-16T09:48:05;29.80;59.60
23507;DHT22;11930;53.076;18.250;2023-07-16T09:50:35;29.70;60.20
23507;DHT22;11930;53.076;18.250;2023-07-16T09:53:04;29.60;61.30
23507;DHT22;11930;53.076;18.250;2023-07-16T09:55:35;29.40;61.20
23507;DHT22;11930;53.076;18.250;2023-07-16T09:58:03;29.20;62.10
23507;DHT22;11930;53.076;18.250;2023-07-16T10:00:32;28.90;62.50
23507;DHT22;11930;53.076;18.250;2023-07-16T10:02:59;28.70;64.40
23507;DHT22;11930;53.076;18.250;2023-07-16T10:05:28;28.50;64.50
23507;DHT22;11930;53.076;18.250;2023-07-16T10:07:57;28.40;66.50
23507;DHT22;11930;53.076;18.250;2023-07-16T10:10:38;28.30;65.90
23507;DHT22;11930;53.076;18.250;2023-07-16T10:13:04;28.10;66.70
23507;DHT22;11930;53.076;18.250;2023-07-16T10:15:32;28.00;67.10
23507;DHT22;11930;53.076;18.250;2023-07-16T10:17:58;27.90;66.20
23507;DHT22;11930;53.076;18.250;2023-07-16T10:20:35;27.90;68.80
23507;DHT22;11930;53.076;18.250;2023-07-16T10:23:12;27.60;69.00
23507;DHT22;11930;53.076;18.250;2023-07-16T10:25:39;27.60;70.00
23507;DHT22;11930;53.076;18.250;2023-07-16T10:28:05;27.40;72.20
23507;DHT22;11930;53.076;18.250;2023-07-16T10:30:33;27.30;75.00
23507;DHT22;11930;53.076;18.250;2023-07-16T10:33:03;27.10;75.80
23507;DHT22;11930;53.076;18.250;2023-07-16T10:35:41;27.00;77.40
23507;DHT22;11930;53.076;18.250;2023-07-16T10:38:07;26.80;78.50
23507;DHT22;11930;53.076;18.250;2023-07-16T10:40:42;26.70;79.60
23507;DHT22;11930;53.076;18.250;2023-07-16T10:43:09;26.50;81.70
23507;DHT22;11930;53.076;18.250;2023-07-16T10:45:35;26.40;85.70
23507;DHT22;11930;53.076;18.250;2023-07-16T10:48:01;26.10;86.50
23507;DHT22;11930;53.076;18.250;2023-07-16T10:50:27;25.80;91.80
23507;DHT22;11930;53.076;18.250;2023-07-16T10:52:55;25.60;93.60
23507;DHT22;11930;53.076;18.250;2023-07-16T10:55:22;25.40;96.00
23507;DHT22;11930;53.076;18.250;2023-07-16T10:57:49;25.20;98.20
23507;DHT22;11930;53.076;18.250;2023-07-16T11:00:17;25.00;99.90
23507;DHT22;11930;53.076;18.250;2023-07-16T11:02:44;24.90;99.90
23507;DHT22;11930;53.076;18.250;2023-07-16T11:05:11;24.90;99.90
23507;DHT22;11930;53.076;18.250;2023-07-16T11:07:37;24.80;99.90
23507;DHT22;11930;53.076;18.250;2023-07-16T11:10:03;24.70;99.90
23507;DHT22;11930;53.076;18.250;2023-07-16T11:12:30;24.70;99.90
23507;DHT22;11930;53.076;18.250;2023-07-16T11:14:56;24.70;99.90
23507;DHT22;11930;53.076;18.250;2023-07-16T11:17:24;24.80;99.90
23507;DHT22;11930;53.076;18.250;2023-07-16T11:19:54;25.00;99.90
23507;DHT22;11930;53.076;18.250;2023-07-16T11:22:25;25.30;99.90
23507;DHT22;11930;53.076;18.250;2023-07-16T11:24:53;25.60;99.90
23507;DHT22;11930;53.076;18.250;2023-07-16T11:27:32;26.00;99.90
23507;DHT22;11930;53.076;18.250;2023-07-16T11:29:59;26.30;99.90
23507;DHT22;11930;53.076;18.250;2023-07-16T11:32:46;26.70;99.90
23507;DHT22;11930;53.076;18.250;2023-07-16T11:35:17;26.90;99.90
23507;DHT22;11930;53.076;18.250;2023-07-16T11:37:44;27.00;99.50
23507;DHT22;11930;53.076;18.250;2023-07-16T11:40:15;27.40;97.80
23507;DHT22;11930;53.076;18.250;2023-07-16T11:42:41;27.30;97.30
23507;DHT22;11930;53.076;18.250;2023-07-16T11:45:22;27.50;96.40
23507;DHT22;11930;53.076;18.250;2023-07-16T11:47:54;27.60;95.00
23507;DHT22;11930;53.076;18.250;2023-07-16T11:50:21;27.70;93.00
23507;DHT22;11930;53.076;18.250;2023-07-16T11:52:54;27.70;94.10
23507;DHT22;11930;53.076;18.250;2023-07-16T11:55:20;27.70;91.20
23507;DHT22;11930;53.076;18.250;2023-07-16T11:57:46;27.70;91.80
23507;DHT22;11930;53.076;18.250;2023-07-16T12:00:15;27.60;91.40
23507;DHT22;11930;53.076;18.250;2023-07-16T12:02:43;27.50;92.30
23507;DHT22;11930;53.076;18.250;2023-07-16T12:05:09;27.60;90.40
23507;DHT22;11930;53.076;18.250;2023-07-16T12:07:37;27.70;92.10
23507;DHT22;11930;53.076;18.250;2023-07-16T12:10:04;27.70;89.70
23507;DHT22;11930;53.076;18.250;2023-07-16T12:12:31;27.60;88.20
23507;DHT22;11930;53.076;18.250;2023-07-16T12:14:59;27.60;91.30
23507;DHT22;11930;53.076;18.250;2023-07-16T12:17:25;27.60;91.70
23507;DHT22;11930;53.076;18.250;2023-07-16T12:19:51;27.60;90.30
23507;DHT22;11930;53.076;18.250;2023-07-16T12:22:18;27.70;90.50
23507;DHT22;11930;53.076;18.250;2023-07-16T12:24:46;27.90;89.90
23507;DHT22;11930;53.076;18.250;2023-07-16T12:27:14;27.90;90.60
23507;DHT22;11930;53.076;18.250;2023-07-16T12:29:42;28.00;88.90
23507;DHT22;11930;53.076;18.250;2023-07-16T12:32:08;28.00;86.80
23507;DHT22;11930;53.076;18.250;2023-07-16T12:34:35;28.20;88.40
23507;DHT22;11930;53.076;18.250;2023-07-16T12:37:03;28.20;88.20
23507;DHT22;11930;53.076;18.250;2023-07-16T12:39:32;28.40;85.70
23507;DHT22;11930;53.076;18.250;2023-07-16T12:41:59;28.30;86.00
23507;DHT22;11930;53.076;18.250;2023-07-16T12:44:27;28.50;85.50
23507;DHT22;11930;53.076;18.250;2023-07-16T12:46:53;28.50;85.10
23507;DHT22;11930;53.076;18.250;2023-07-16T12:49:23;28.50;84.00
23507;DHT22;11930;53.076;18.250;2023-07-16T12:51:49;28.50;84.90
23507;DHT22;11930;53.076;18.250;2023-07-16T12:54:25;28.40;82.60
23507;DHT22;11930;53.076;18.250;2023-07-16T12:56:52;28.50;85.50
23507;DHT22;11930;53.076;18.250;2023-07-16T12:59:18;28.50;84.90
23507;DHT22;11930;53.076;18.250;2023-07-16T13:01:45;28.60;83.90
23507;DHT22;11930;53.076;18.250;2023-07-16T13:04:11;28.70;83.50
23507;DHT22;11930;53.076;18.250;2023-07-16T13:06:37;28.90;84.50
23507;DHT22;11930;53.076;18.250;2023-07-16T13:09:03;28.90;84.10
23507;DHT22;11930;53.076;18.250;2023-07-16T13:11:31;29.00;85.40
23507;DHT22;11930;53.076;18.250;2023-07-16T13:13:57;29.00;84.70
23507;DHT22;11930;53.076;18.250;2023-07-16T13:16:23;29.00;85.30
23507;DHT22;11930;53.076;18.250;2023-07-16T13:18:49;29.00;85.40
23507;DHT22;11930;53.076;18.250;2023-07-16T13:21:15;29.00;83.50
23507;DHT22;11930;53.076;18.250;2023-07-16T13:23:41;28.90;82.00
23507;DHT22;11930;53.076;18.250;2023-07-16T13:26:07;28.70;83.60
23507;DHT22;11930;53.076;18.250;2023-07-16T13:28:34;28.70;85.10
23507;DHT22;11930;53.076;18.250;2023-07-16T13:31:00;28.90;87.10
23507;DHT22;11930;53.076;18.250;2023-07-16T13:33:27;29.00;82.40
23507;DHT22;11930;53.076;18.250;2023-07-16T13:35:53;29.10;84.70
23507;DHT22;11930;53.076;18.250;2023-07-16T13:38:19;29.30;82.60
23507;DHT22;11930;53.076;18.250;2023-07-16T13:40:45;29.40;80.80
23507;DHT22;11930;53.076;18.250;2023-07-16T13:43:11;29.60;80.50
23507;DHT22;11930;53.076;18.250;2023-07-16T13:45:38;29.60;80.40
23507;DHT22;11930;53.076;18.250;2023-07-16T13:48:05;29.60;79.80
23507;DHT22;11930;53.076;18.250;2023-07-16T13:50:31;29.60;77.90
23507;DHT22;11930;53.076;18.250;2023-07-16T13:52:57;29.60;79.00
23507;DHT22;11930;53.076;18.250;2023-07-16T13:55:27;29.50;81.60
23507;DHT22;11930;53.076;18.250;2023-07-16T13:57:56;29.40;82.10
23507;DHT22;11930;53.076;18.250;2023-07-16T14:00:22;29.50;80.60
23507;DHT22;11930;53.076;18.250;2023-07-16T14:02:49;29.40;79.30
23507;DHT22;11930;53.076;18.250;2023-07-16T14:05:15;29.40;82.70
23507;DHT22;11930;53.076;18.250;2023-07-16T14:07:42;29.30;81.60
23507;DHT22;11930;53.076;18.250;2023-07-16T14:10:09;29.30;80.30
23507;DHT22;11930;53.076;18.250;2023-07-16T14:12:36;29.20;79.60
23507;DHT22;11930;53.076;18.250;2023-07-16T14:15:02;29.00;78.80
23507;DHT22;11930;53.076;18.250;2023-07-16T14:17:29;28.90;81.80
23507;DHT22;11930;53.076;18.250;2023-07-16T14:19:55;28.70;78.60
23507;DHT22;11930;53.076;18.250;2023-07-16T14:22:21;28.60;78.10
23507;DHT22;11930;53.076;18.250;2023-07-16T14:24:53;28.60;81.30
23507;DHT22;11930;53.076;18.250;2023-07-16T14:27:20;28.70;79.10
23507;DHT22;11930;53.076;18.250;2023-07-16T14:29:47;28.60;80.60
23507;DHT22;11930;53.076;18.250;2023-07-16T14:32:16;28.60;80.00
23507;DHT22;11930;53.076;18.250;2023-07-16T14:34:42;28.70;80.10
23507;DHT22;11930;53.076;18.250;2023-07-16T14:37:09;28.70;78.50
23507;DHT22;11930;53.076;18.250;2023-07-16T14:42:01;29.00;78.70
23507;DHT22;11930;53.076;18.250;2023-07-16T14:44:30;29.10;79.00
23507;DHT22;11930;53.076;18.250;2023-07-16T14:46:56;29.20;75.40
23507;DHT22;11930;53.076;18.250;2023-07-16T14:49:22;29.20;78.10
23507;DHT22;11930;53.076;18.250;2023-07-16T14:51:49;29.30;79.00
23507;DHT22;11930;53.076;18.250;2023-07-16T14:54:15;29.30;76.40
23507;DHT22;11930;53.076;18.250;2023-07-16T14:56:41;29.20;76.90
23507;DHT22;11930;53.076;18.250;2023-07-16T14:59:07;29.40;77.00
23507;DHT22;11930;53.076;18.250;2023-07-16T15:01:33;29.40;77.80
23507;DHT22;11930;53.076;18.250;2023-07-16T15:03:59;29.60;73.90
23507;DHT22;11930;53.076;18.250;2023-07-16T15:06:25;29.50;74.10
23507;DHT22;11930;53.076;18.250;2023-07-16T15:08:52;29.40;74.70
23507;DHT22;11930;53.076;18.250;2023-07-16T15:11:19;29.10;75.40
23507;DHT22;11930;53.076;18.250;2023-07-16T15:13:45;29.10;75.60
23507;DHT22;11930;53.076;18.250;2023-07-16T15:18:39;28.90;74.30
23507;DHT22;11930;53.076;18.250;2023-07-16T15:21:05;28.90;76.30
23507;DHT22;11930;53.076;18.250;2023-07-16T15:26:02;28.90;74.80
23507;DHT22;11930;53.076;18.250;2023-07-16T15:28:29;28.80;74.80
23507;DHT22;11930;53.076;18.250;2023-07-16T15:31:02;28.80;74.70
23507;DHT22;11930;53.076;18.250;2023-07-16T15:33:30;28.70;73.00
23507;DHT22;11930;53.076;18.250;2023-07-16T15:35:56;28.70;73.00